Time;durP1;ratioP1;P1;durP2;ratioP2;P2;SDS_P1;SDS_P2;PMS_P1;PMS_P2;Temp;Humidity;BMP_temperature;BMP_pressure;BME280_temperature;BME280_humidity;BME280_pressure;Samples;Min_cycle;Max_cycle;Signal;HPM_P1;HPM_P2
2022/05/01 00:01:14;;;;;;;1.03;0.60;;;10.50;99.90;;;;;;5001304;28;20257;-82
2022/05/01 00:03:40;;;;;;;0.33;0.33;;;10.60;99.90;;;;;;5005144;28;20216;-82
2022/05/01 00:06:07;;;;;;;0.27;0.27;;;10.70;99.90;;;;;;5000411;28;20275;-82
2022/05/01 00:08:38;;;;;;;0.60;0.30;;;10.60;99.90;;;;;;5001262;28;20650;-82
2022/05/01 00:11:04;;;;;;;0.40;0.40;;;10.50;99.90;;;;;;5001722;28;20199;-82
2022/05/01 00:13:30;;;;;;;0.43;0.30;;;10.60;99.90;;;;;;4999457;28;20191;-82
2022/05/01 00:15:56;;;;;;;0.33;0.30;;;10.50;99.90;;;;;;5007008;28;20675;-82
2022/05/01 00:18:22;;;;;;;0.50;0.37;;;10.40;99.90;;;;;;5007642;28;20187;-82
2022/05/01 00:20:48;;;;;;;0.50;0.30;;;10.40;99.90;;;;;;5007117;28;20689;-83
2022/05/01 00:23:14;;;;;;;0.20;0.20;;;10.30;99.90;;;;;;5016127;28;20203;-82
2022/05/01 00:25:42;;;;;;;0.60;0.60;;;10.40;99.90;;;;;;5000118;28;20187;-82
2022/05/01 00:28:13;;;;;;;0.37;0.37;;;10.30;99.90;;;;;;4999403;28;20261;-82
2022/05/01 00:30:40;;;;;;;0.10;0.10;;;10.30;99.90;;;;;;5015701;28;20211;-82
2022/05/01 00:38:35;;;;;;;0.20;0.20;;;10.20;99.90;;;;;;5001044;28;20191;-82
2022/05/01 00:41:03;;;;;;;0.20;0.20;;;10.20;99.90;;;;;;5006297;28;20211;-81
2022/05/01 00:43:29;;;;;;;0.53;0.53;;;10.20;99.90;;;;;;5015136;28;20264;-82
2022/05/01 00:45:54;;;;;;;0.27;0.27;;;10.20;99.90;;;;;;5001023;28;20803;-82
2022/05/01 00:48:20;;;;;;;0.37;0.30;;;10.30;99.90;;;;;;5001949;28;20254;-82
2022/05/01 00:50:45;;;;;;;0.10;0.10;;;10.40;99.90;;;;;;5002232;28;20213;-82
2022/05/01 00:53:11;;;;;;;0.03;0.03;;;10.60;99.90;;;;;;5001902;28;21178;-82
2022/05/01 00:55:37;;;;;;;0.20;0.20;;;10.70;99.90;;;;;;4999319;28;20191;-82
2022/05/01 00:58:07;;;;;;;0.67;0.67;;;10.90;99.90;;;;;;5006879;28;20183;-82
2022/05/01 01:00:34;;;;;;;0.40;0.30;;;11.00;99.90;;;;;;5002203;28;20682;-81
2022/05/01 01:03:00;;;;;;;0.13;0.13;;;11.10;99.90;;;;;;5005787;28;20887;-81
2022/05/01 01:05:25;;;;;;;0.17;0.17;;;11.10;99.90;;;;;;5006963;28;20321;-82
2022/05/01 01:07:52;;;;;;;2.77;0.40;;;11.00;99.90;;;;;;5006484;28;20637;-82
2022/05/01 01:10:18;;;;;;;0.53;0.53;;;10.80;99.90;;;;;;5009790;28;20184;-81
2022/05/01 01:12:56;;;;;;;0.73;0.47;;;10.90;99.90;;;;;;5002892;28;20551;-82
2022/05/01 01:15:28;;;;;;;0.90;0.50;;;10.60;99.90;;;;;;5019801;28;21125;-82
2022/05/01 01:17:55;;;;;;;0.63;0.57;;;10.60;99.90;;;;;;5002475;28;20183;-82
2022/05/01 01:20:25;;;;;;;0.50;0.20;;;10.80;99.90;;;;;;5009506;28;20206;-82
2022/05/01 01:22:53;;;;;;;0.27;0.27;;;10.90;99.90;;;;;;5004780;28;20184;-81
2022/05/01 01:25:22;;;;;;;0.73;0.40;;;10.90;99.90;;;;;;5003600;28;20270;-82
2022/05/01 01:27:49;;;;;;;0.30;0.30;;;11.00;99.90;;;;;;5002185;28;20222;-82
2022/05/01 01:33:02;;;;;;;0.50;0.20;;;11.10;99.90;;;;;;5004467;28;20187;-83
2022/05/01 01:35:29;;;;;;;0.63;0.63;;;11.20;99.90;;;;;;5003125;28;20270;-82
2022/05/01 01:37:55;;;;;;;0.40;0.40;;;11.30;99.90;;;;;;5001840;28;20251;-82
2022/05/01 01:40:30;;;;;;;0.40;0.30;;;11.10;99.90;;;;;;5009740;28;20198;-82
2022/05/01 01:42:58;;;;;;;1.00;0.90;;;11.00;99.90;;;;;;5001298;28;20179;-81
2022/05/01 01:45:28;;;;;;;0.60;0.60;;;11.10;99.90;;;;;;5019493;28;20220;-82
2022/05/01 01:47:54;;;;;;;0.23;0.23;;;10.90;99.90;;;;;;5009831;28;20176;-82
2022/05/01 01:50:20;;;;;;;0.37;0.37;;;10.70;99.90;;;;;;5002821;28;20195;-82
2022/05/01 01:52:46;;;;;;;0.20;0.20;;;10.70;99.90;;;;;;5007765;28;20191;-82
2022/05/01 01:55:21;;;;;;;0.30;0.30;;;10.80;99.90;;;;;;5002649;28;20186;-82
2022/05/01 01:57:46;;;;;;;0.30;0.30;;;10.80;99.90;;;;;;5001905;28;20547;-82
2022/05/01 02:00:13;;;;;;;0.40;0.40;;;10.60;99.90;;;;;;5018530;28;20183;-82
2022/05/01 02:02:39;;;;;;;1.03;0.57;;;10.50;99.90;;;;;;5001412;28;20208;-82
2022/05/01 02:05:06;;;;;;;0.20;0.20;;;10.40;99.90;;;;;;5009146;28;20234;-82
2022/05/01 02:07:33;;;;;;;0.57;0.47;;;10.30;99.90;;;;;;5009602;28;20203;-82
2022/05/01 02:09:59;;;;;;;0.33;0.33;;;10.30;99.90;;;;;;5003222;28;20198;-82
2022/05/01 02:12:24;;;;;;;0.33;0.30;;;10.40;99.90;;;;;;5018564;28;20207;-82
2022/05/01 02:14:50;;;;;;;0.43;0.43;;;10.40;99.90;;;;;;5008619;28;20199;-82
2022/05/01 02:17:15;;;;;;;9.37;1.10;;;10.40;99.90;;;;;;5017524;28;20607;-82
2022/05/01 02:19:41;;;;;;;0.63;0.63;;;10.30;99.90;;;;;;5016288;28;20191;-83
2022/05/01 02:22:08;;;;;;;1.00;0.60;;;10.20;99.90;;;;;;5017194;28;20211;-82
2022/05/01 02:24:34;;;;;;;0.33;0.33;;;10.20;99.90;;;;;;5003414;28;20222;-82
2022/05/01 02:27:00;;;;;;;0.67;0.67;;;10.10;99.90;;;;;;5000550;28;20679;-82
2022/05/01 02:29:26;;;;;;;2.33;1.53;;;10.10;99.90;;;;;;5003414;28;20191;-82
2022/05/01 02:31:55;;;;;;;0.63;0.63;;;10.10;99.90;;;;;;5007506;28;20211;-82
2022/05/01 02:34:22;;;;;;;0.73;0.40;;;10.00;99.90;;;;;;5008964;28;20180;-82
2022/05/01 02:36:51;;;;;;;0.40;0.40;;;10.10;99.90;;;;;;5004335;28;20219;-82
2022/05/01 02:39:20;;;;;;;0.33;0.33;;;10.20;99.90;;;;;;5003223;28;20183;-81
2022/05/01 02:41:46;;;;;;;0.30;0.30;;;10.20;99.90;;;;;;5001986;28;20231;-82
2022/05/01 02:44:11;;;;;;;0.80;0.80;;;10.00;99.90;;;;;;5003258;28;20305;-82
2022/05/01 02:46:37;;;;;;;0.63;0.50;;;10.00;99.90;;;;;;5005618;28;20676;-81
2022/05/01 02:49:05;;;;;;;0.30;0.30;;;10.00;99.90;;;;;;5005320;28;20215;-82
2022/05/01 02:51:31;;;;;;;0.50;0.50;;;10.00;99.90;;;;;;5020722;28;20221;-81
2022/05/01 02:53:58;;;;;;;1.17;0.40;;;10.10;99.90;;;;;;5003826;28;20187;-81
2022/05/01 02:56:24;;;;;;;1.43;0.70;;;10.20;99.90;;;;;;5019976;28;20199;-81
2022/05/01 02:58:49;;;;;;;0.83;0.40;;;10.30;99.90;;;;;;5006781;28;20194;-82
2022/05/01 03:01:15;;;;;;;0.30;0.30;;;10.30;99.90;;;;;;5009690;28;20210;-81
2022/05/01 03:03:40;;;;;;;0.57;0.50;;;10.20;99.90;;;;;;5009162;28;20212;-82
2022/05/01 03:06:06;;;;;;;0.50;0.50;;;10.20;99.90;;;;;;5009939;28;20172;-81
2022/05/01 03:08:32;;;;;;;0.83;0.83;;;10.10;99.90;;;;;;5019240;28;20349;-81
2022/05/01 03:10:57;;;;;;;0.80;0.60;;;10.00;99.90;;;;;;5004382;28;20213;-81
2022/05/01 03:13:23;;;;;;;0.30;0.30;;;9.90;99.90;;;;;;5004898;28;20183;-82
2022/05/01 03:15:49;;;;;;;0.20;0.20;;;9.80;99.90;;;;;;5004874;28;20281;-81
2022/05/01 03:23:45;;;;;;;2.73;0.60;;;9.80;99.90;;;;;;5005124;28;20559;-82
2022/05/01 03:26:11;;;;;;;1.87;0.40;;;9.80;99.90;;;;;;5005180;28;20190;-81
2022/05/01 03:28:36;;;;;;;0.73;0.30;;;9.80;99.90;;;;;;5003542;28;20191;-81
2022/05/01 03:31:03;;;;;;;0.57;0.37;;;9.80;99.90;;;;;;5017004;28;20207;-81
2022/05/01 03:33:31;;;;;;;0.60;0.60;;;9.80;99.90;;;;;;5004603;28;20229;-82
2022/05/01 03:35:57;;;;;;;0.47;0.47;;;9.80;99.90;;;;;;5004757;28;20191;-81
2022/05/01 03:38:23;;;;;;;0.50;0.50;;;9.80;99.90;;;;;;5003543;28;20185;-82
2022/05/01 03:40:49;;;;;;;0.20;0.20;;;9.80;99.90;;;;;;5009331;28;20301;-82
2022/05/01 03:43:17;;;;;;;0.30;0.30;;;9.80;99.90;;;;;;5004560;28;20317;-81
2022/05/01 03:45:43;;;;;;;0.77;0.77;;;9.80;99.90;;;;;;5003286;28;20201;-81
2022/05/01 03:48:11;;;;;;;0.40;0.40;;;9.80;99.90;;;;;;5009181;28;20191;-81
2022/05/01 03:50:37;;;;;;;0.50;0.33;;;9.80;99.90;;;;;;5008684;28;20194;-82
2022/05/01 03:53:04;;;;;;;0.57;0.53;;;9.90;99.90;;;;;;5009801;28;20186;-81
2022/05/01 03:55:31;;;;;;;0.40;0.40;;;10.00;99.90;;;;;;5008927;28;20282;-81
2022/05/01 03:57:58;;;;;;;0.33;0.33;;;10.00;99.90;;;;;;5008761;28;20183;-81
2022/05/01 04:00:24;;;;;;;2.20;0.53;;;10.00;99.90;;;;;;5009506;28;20557;-81
2022/05/01 04:02:52;;;;;;;0.70;0.70;;;10.00;99.90;;;;;;5017800;28;20187;-82
2022/05/01 04:05:17;;;;;;;2.43;2.17;;;10.00;99.90;;;;;;5003293;28;20206;-82
2022/05/01 04:07:43;;;;;;;0.70;0.50;;;9.90;99.90;;;;;;5008800;28;20749;-81
2022/05/01 04:10:09;;;;;;;0.63;0.60;;;9.90;99.90;;;;;;5008260;28;20184;-82
2022/05/01 04:12:45;;;;;;;0.10;0.10;;;10.10;99.90;;;;;;5008344;28;20210;-82
2022/05/01 04:15:14;;;;;;;0.40;0.20;;;10.10;99.90;;;;;;4999671;28;20193;-81
2022/05/01 04:17:40;;;;;;;0.20;0.20;;;10.10;99.90;;;;;;4998788;28;21276;-82
2022/05/01 04:20:12;;;;;;;0.27;0.27;;;10.00;99.90;;;;;;5000072;28;20193;-82
2022/05/01 04:22:42;;;;;;;0.20;0.20;;;10.10;99.90;;;;;;5018554;28;20270;-82
2022/05/01 04:25:16;;;;;;;0.77;0.30;;;10.10;99.90;;;;;;5001837;28;20198;-82
2022/05/01 04:27:43;;;;;;;3.00;1.73;;;10.20;99.90;;;;;;5013719;28;20214;-83
2022/05/01 04:30:11;;;;;;;0.20;0.20;;;10.10;99.90;;;;;;5016904;28;20186;-81
2022/05/01 04:32:55;;;;;;;0.30;0.30;;;10.10;99.90;;;;;;4999803;28;20290;-82
2022/05/01 04:35:28;;;;;;;0.83;0.67;;;10.10;99.90;;;;;;5008144;28;20237;-82
2022/05/01 04:38:14;;;;;;;1.00;0.57;;;10.10;99.90;;;;;;4999661;28;20190;-82
2022/05/01 04:40:47;;;;;;;0.77;0.77;;;10.10;99.90;;;;;;5003507;28;20214;-82
2022/05/01 04:43:14;;;;;;;0.37;0.37;;;10.10;99.90;;;;;;4998559;28;20208;-82
2022/05/01 04:45:41;;;;;;;0.53;0.30;;;10.20;99.90;;;;;;5006072;28;20191;-82
2022/05/01 04:48:08;;;;;;;0.40;0.40;;;10.40;99.90;;;;;;5006806;28;20209;-82
2022/05/01 04:50:35;;;;;;;0.57;0.57;;;10.40;99.90;;;;;;5003633;28;20186;-83
2022/05/01 04:53:02;;;;;;;0.30;0.30;;;10.50;99.90;;;;;;5006978;28;20184;-83
2022/05/01 04:55:29;;;;;;;0.20;0.20;;;10.50;99.90;;;;;;5004778;28;20179;-82
2022/05/01 04:57:56;;;;;;;0.10;0.10;;;10.60;99.90;;;;;;5004270;28;20561;-82
2022/05/01 05:00:22;;;;;;;0.40;0.40;;;10.90;99.90;;;;;;5011624;28;20191;-82
2022/05/01 05:02:49;;;;;;;0.10;0.10;;;11.00;99.90;;;;;;5004421;28;20176;-82
2022/05/01 05:05:16;;;;;;;0.37;0.27;;;11.20;99.90;;;;;;5013191;28;20191;-81
2022/05/01 05:07:41;;;;;;;0.10;0.10;;;11.30;99.90;;;;;;5007758;28;20287;-81
2022/05/01 05:10:09;;;;;;;0.87;0.57;;;11.40;99.90;;;;;;5014373;28;20714;-81
2022/05/01 05:12:36;;;;;;;0.20;0.20;;;11.30;99.90;;;;;;5012121;28;20430;-81
2022/05/01 05:15:05;;;;;;;0.40;0.40;;;11.10;99.90;;;;;;5006841;28;20190;-81
2022/05/01 05:17:33;;;;;;;0.50;0.50;;;11.00;99.90;;;;;;5013416;28;20245;-81
2022/05/01 05:20:00;;;;;;;0.20;0.20;;;11.10;99.90;;;;;;5008454;28;20507;-81
2022/05/01 05:22:26;;;;;;;0.33;0.33;;;11.10;99.90;;;;;;5013108;28;20241;-81
2022/05/01 05:24:51;;;;;;;0.40;0.40;;;11.20;99.90;;;;;;5014730;28;20257;-81
2022/05/01 05:27:25;;;;;;;1.20;0.27;;;11.20;99.90;;;;;;5021459;28;20190;-81
2022/05/01 05:29:53;;;;;;;0.23;0.23;;;11.30;99.90;;;;;;5025190;28;20251;-81
2022/05/01 05:32:18;;;;;;;0.37;0.37;;;11.50;99.90;;;;;;5015169;28;20211;-81
2022/05/01 05:34:44;;;;;;;0.73;0.67;;;11.50;99.90;;;;;;5011579;28;20290;-81
2022/05/01 05:37:09;;;;;;;0.13;0.13;;;11.50;99.90;;;;;;5014930;28;20188;-81
2022/05/01 05:39:35;;;;;;;2.20;0.70;;;11.50;99.90;;;;;;5014461;28;20242;-81
2022/05/01 05:42:00;;;;;;;0.40;0.40;;;11.70;99.90;;;;;;5019249;28;20241;-80
2022/05/01 05:44:26;;;;;;;0.30;0.30;;;11.90;99.90;;;;;;5008817;28;20211;-79
2022/05/01 05:46:51;;;;;;;0.20;0.20;;;12.00;99.90;;;;;;5003852;28;20203;-80
2022/05/01 05:49:17;;;;;;;0.30;0.30;;;12.20;99.90;;;;;;5010497;28;20181;-79
2022/05/01 05:51:42;;;;;;;0.63;0.63;;;12.20;99.90;;;;;;5017794;28;20701;-80
2022/05/01 05:54:08;;;;;;;0.50;0.50;;;12.20;99.90;;;;;;5018252;28;20252;-80
2022/05/01 05:56:33;;;;;;;2.83;0.50;;;12.30;99.90;;;;;;5001935;28;20194;-79
2022/05/01 05:58:59;;;;;;;0.30;0.30;;;12.40;99.90;;;;;;5008203;28;20221;-79
2022/05/01 06:01:25;;;;;;;0.40;0.40;;;12.50;99.90;;;;;;5003302;28;20208;-79
2022/05/01 06:03:50;;;;;;;2.10;0.57;;;12.60;99.90;;;;;;5000275;28;20222;-79
2022/05/01 06:06:17;;;;;;;0.20;0.20;;;12.60;99.90;;;;;;5016115;28;20190;-79
2022/05/01 06:08:44;;;;;;;1.30;0.97;;;12.70;99.90;;;;;;4997857;28;20337;-79
2022/05/01 06:11:10;;;;;;;0.20;0.20;;;12.80;99.90;;;;;;5016569;28;20272;-80
2022/05/01 06:13:36;;;;;;;1.23;0.40;;;12.90;99.90;;;;;;5002759;28;20603;-80
2022/05/01 06:16:02;;;;;;;0.77;0.67;;;13.00;99.90;;;;;;5019403;28;20274;-80
2022/05/01 06:18:28;;;;;;;0.70;0.70;;;12.90;99.90;;;;;;5019469;28;20274;-80
2022/05/01 06:20:53;;;;;;;2.13;0.70;;;13.00;99.90;;;;;;5020116;28;20720;-82
2022/05/01 06:23:20;;;;;;;0.70;0.63;;;13.10;99.90;;;;;;5009249;28;20215;-80
2022/05/01 06:25:46;;;;;;;0.90;0.50;;;13.10;99.90;;;;;;5018701;28;20266;-80
2022/05/01 06:28:15;;;;;;;0.27;0.27;;;13.10;99.90;;;;;;5001586;28;20182;-79
2022/05/01 06:30:46;;;;;;;0.40;0.40;;;13.10;99.90;;;;;;5002101;28;20475;-80
2022/05/01 06:33:14;;;;;;;0.37;0.37;;;13.10;99.90;;;;;;5002783;28;20182;-80
2022/05/01 06:35:40;;;;;;;1.03;0.50;;;13.20;99.90;;;;;;5004282;28;20192;-82
2022/05/01 06:38:07;;;;;;;0.30;0.30;;;13.30;99.90;;;;;;5005043;28;20254;-83
2022/05/01 06:40:34;;;;;;;0.30;0.30;;;13.30;99.90;;;;;;5008030;28;20195;-80
2022/05/01 06:43:00;;;;;;;0.23;0.23;;;13.40;99.90;;;;;;5002007;28;20240;-84
2022/05/01 06:45:26;;;;;;;0.50;0.50;;;13.40;99.90;;;;;;5021410;28;20266;-81
2022/05/01 06:47:51;;;;;;;0.30;0.30;;;13.50;99.90;;;;;;5005954;28;20235;-79
2022/05/01 06:50:17;;;;;;;0.13;0.13;;;13.60;99.90;;;;;;5005946;28;20190;-79
2022/05/01 06:52:42;;;;;;;0.80;0.70;;;13.60;99.90;;;;;;5001523;28;20200;-79
2022/05/01 06:55:09;;;;;;;0.77;0.77;;;13.40;99.90;;;;;;5001670;28;20192;-78
2022/05/01 06:57:34;;;;;;;0.47;0.30;;;13.30;99.90;;;;;;5006348;28;20192;-79
2022/05/01 07:00:00;;;;;;;0.30;0.30;;;13.50;99.90;;;;;;5002223;28;20195;-79
2022/05/01 07:02:25;;;;;;;0.30;0.30;;;13.60;99.90;;;;;;4998136;28;20637;-79
2022/05/01 07:04:51;;;;;;;0.30;0.27;;;13.70;99.90;;;;;;4999015;28;20212;-79
2022/05/01 07:07:16;;;;;;;0.30;0.20;;;13.80;99.90;;;;;;4999640;28;20198;-79
2022/05/01 07:09:42;;;;;;;0.70;0.70;;;13.90;99.90;;;;;;5013488;28;20193;-79
2022/05/01 07:12:10;;;;;;;0.30;0.30;;;13.90;99.90;;;;;;5014535;28;20205;-79
2022/05/01 07:14:37;;;;;;;0.33;0.33;;;14.00;99.90;;;;;;4999917;28;20220;-79
2022/05/01 07:17:03;;;;;;;0.77;0.67;;;14.00;99.90;;;;;;4999766;28;20191;-79
2022/05/01 07:19:29;;;;;;;0.83;0.40;;;14.10;99.90;;;;;;5000784;28;20197;-79
2022/05/01 07:21:54;;;;;;;0.57;0.50;;;14.10;99.90;;;;;;5006115;28;20229;-79
2022/05/01 07:24:20;;;;;;;0.17;0.17;;;14.30;99.90;;;;;;5007288;28;20216;-79
2022/05/01 07:26:45;;;;;;;0.40;0.40;;;14.30;99.90;;;;;;5001296;28;20628;-79
2022/05/01 07:29:11;;;;;;;0.30;0.30;;;14.40;99.90;;;;;;5016086;28;20181;-79
2022/05/01 07:31:36;;;;;;;0.30;0.30;;;14.50;99.90;;;;;;5014137;28;20206;-79
2022/05/01 07:34:02;;;;;;;0.40;0.40;;;14.10;99.90;;;;;;5016131;28;20555;-79
2022/05/01 07:36:27;;;;;;;0.27;0.27;;;14.20;99.90;;;;;;5015412;28;20198;-79
2022/05/01 07:38:53;;;;;;;1.70;0.80;;;14.30;99.90;;;;;;5016395;28;20192;-79
2022/05/01 07:41:19;;;;;;;0.33;0.33;;;13.80;99.90;;;;;;5000971;28;20206;-78
2022/05/01 07:43:46;;;;;;;4.73;0.40;;;13.40;99.90;;;;;;4998444;28;20215;-79
2022/05/01 07:46:12;;;;;;;0.53;0.53;;;13.20;99.90;;;;;;4998800;28;20183;-79
2022/05/01 07:48:38;;;;;;;1.07;0.77;;;13.40;99.90;;;;;;4998234;28;20201;-79
2022/05/01 07:51:04;;;;;;;0.30;0.30;;;13.20;99.90;;;;;;4999629;28;20211;-80
2022/05/01 07:53:29;;;;;;;0.40;0.40;;;13.70;99.90;;;;;;4999229;28;20262;-79
2022/05/01 07:55:57;;;;;;;0.50;0.50;;;13.60;99.90;;;;;;5013889;28;20210;-79
2022/05/01 07:58:23;;;;;;;0.60;0.60;;;13.30;99.90;;;;;;5000254;28;20198;-79
2022/05/01 08:00:48;;;;;;;0.70;0.60;;;13.80;99.90;;;;;;4998525;28;20215;-79
2022/05/01 08:05:58;;;;;;;0.97;0.40;;;13.80;99.90;;;;;;5001992;28;20256;-79
2022/05/01 08:08:33;;;;;;;0.50;0.50;;;14.20;99.90;;;;;;5013119;28;20666;-79
2022/05/01 08:11:01;;;;;;;0.67;0.47;;;14.00;99.90;;;;;;4998451;28;20273;-79
2022/05/01 08:13:26;;;;;;;0.43;0.43;;;13.60;99.90;;;;;;4998651;28;20181;-80
2022/05/01 08:15:52;;;;;;;0.97;0.57;;;13.60;99.90;;;;;;5013405;28;20213;-79
2022/05/01 08:21:05;;;;;;;0.40;0.40;;;14.00;99.90;;;;;;5002486;28;20229;-79
2022/05/01 08:23:31;;;;;;;0.33;0.33;;;14.50;99.90;;;;;;5002234;28;20307;-79
2022/05/01 08:26:02;;;;;;;0.30;0.30;;;14.60;99.90;;;;;;5003783;28;20179;-79
2022/05/01 08:28:35;;;;;;;0.33;0.33;;;14.60;99.90;;;;;;5001392;28;20190;-80
2022/05/01 08:31:01;;;;;;;0.83;0.77;;;14.40;99.90;;;;;;5004609;28;20234;-80
2022/05/01 08:33:27;;;;;;;0.57;0.57;;;14.50;99.90;;;;;;5008546;28;20214;-80
2022/05/01 08:35:53;;;;;;;0.20;0.20;;;15.30;99.90;;;;;;5004968;28;20192;-80
2022/05/01 08:38:20;;;;;;;0.30;0.30;;;15.90;99.90;;;;;;5002676;28;20671;-80
2022/05/01 08:40:48;;;;;;;2.37;0.73;;;16.20;99.90;;;;;;5005089;28;20568;-80
2022/05/01 08:43:21;;;;;;;0.53;0.53;;;15.20;99.90;;;;;;5005508;28;20194;-80
2022/05/01 08:45:53;;;;;;;0.50;0.50;;;15.40;99.90;;;;;;5005525;28;20196;-80
2022/05/01 08:48:44;;;;;;;0.20;0.20;;;16.00;99.90;;;;;;5020771;28;20190;-80
2022/05/01 08:51:11;;;;;;;0.10;0.10;;;16.50;99.90;;;;;;5003597;28;20208;-79
2022/05/01 08:53:37;;;;;;;1.17;0.50;;;16.20;99.90;;;;;;5010042;28;20375;-79
2022/05/01 08:56:05;;;;;;;0.40;0.40;;;16.60;99.90;;;;;;5019620;28;20686;-80
2022/05/01 08:58:33;;;;;;;1.10;0.80;;;16.90;99.90;;;;;;5003905;28;20246;-80
2022/05/01 09:00:59;;;;;;;0.57;0.43;;;16.00;99.90;;;;;;5005131;28;20211;-80
2022/05/01 09:03:25;;;;;;;1.13;0.80;;;15.90;99.90;;;;;;5005011;28;20199;-81
2022/05/01 09:05:51;;;;;;;1.10;1.00;;;16.90;99.90;;;;;;5002239;28;20650;-79
2022/05/01 09:08:17;;;;;;;0.60;0.60;;;17.20;99.90;;;;;;5003580;28;20704;-80
2022/05/01 09:10:45;;;;;;;0.30;0.30;;;17.70;99.90;;;;;;5019151;28;20212;-80
2022/05/01 09:13:11;;;;;;;0.37;0.37;;;18.00;99.90;;;;;;5004071;28;20194;-80
2022/05/01 09:15:40;;;;;;;0.77;0.30;;;18.10;99.90;;;;;;5004134;28;20550;-80
2022/05/01 09:18:08;;;;;;;0.83;0.77;;;18.50;99.90;;;;;;5004844;28;20179;-79
2022/05/01 09:20:36;;;;;;;1.37;0.77;;;17.90;99.90;;;;;;5005362;28;20184;-80
2022/05/01 09:23:02;;;;;;;1.33;1.23;;;17.70;99.90;;;;;;5002934;28;20188;-80
2022/05/01 09:25:29;;;;;;;0.63;0.60;;;16.90;99.90;;;;;;5004781;28;20184;-79
2022/05/01 09:27:59;;;;;;;2.00;0.57;;;17.50;99.90;;;;;;5003277;28;20211;-79
2022/05/01 09:30:38;;;;;;;0.87;0.80;;;17.90;99.90;;;;;;5002231;28;20209;-79
2022/05/01 09:33:04;;;;;;;0.40;0.40;;;17.30;99.90;;;;;;5004666;28;20191;-80
2022/05/01 09:35:33;;;;;;;0.50;0.37;;;17.70;99.90;;;;;;5009503;28;20183;-80
2022/05/01 09:38:18;;;;;;;0.40;0.40;;;17.90;99.90;;;;;;5010629;28;20195;-81
2022/05/01 09:40:45;;;;;;;2.40;0.63;;;18.40;99.90;;;;;;5004763;28;20211;-80
2022/05/01 09:43:35;;;;;;;0.57;0.57;;;18.70;99.90;;;;;;5004480;28;20187;-80
2022/05/01 09:46:20;;;;;;;1.33;0.60;;;18.00;99.90;;;;;;5003435;28;20250;-80
2022/05/01 09:49:01;;;;;;;0.93;0.67;;;18.20;99.90;;;;;;5010254;28;21009;-80
2022/05/01 09:51:28;;;;;;;0.43;0.43;;;17.90;99.90;;;;;;5002940;28;20207;-79
2022/05/01 09:53:54;;;;;;;0.77;0.77;;;18.10;99.90;;;;;;5003965;28;20627;-80
2022/05/01 09:56:20;;;;;;;0.70;0.70;;;17.40;99.90;;;;;;5007383;28;20237;-80
2022/05/01 09:58:46;;;;;;;0.57;0.57;;;17.70;99.90;;;;;;5002866;28;20608;-79
2022/05/01 10:01:16;;;;;;;0.57;0.57;;;17.50;99.90;;;;;;5003550;28;21198;-80
2022/05/01 10:03:46;;;;;;;1.07;0.63;;;17.60;99.90;;;;;;5002757;28;20208;-80
2022/05/01 10:06:13;;;;;;;1.00;1.00;;;17.10;99.90;;;;;;5004117;28;20183;-80
2022/05/01 10:08:40;;;;;;;0.57;0.57;;;18.00;99.90;;;;;;5006134;28;20229;-81
2022/05/01 10:11:06;;;;;;;0.97;0.73;;;19.00;99.90;;;;;;5013230;28;20210;-82
2022/05/01 10:13:33;;;;;;;0.47;0.40;;;18.90;99.90;;;;;;5011503;28;20206;-82
2022/05/01 10:16:00;;;;;;;1.13;0.67;;;19.10;99.90;;;;;;5012143;28;20191;-82
2022/05/01 10:18:26;;;;;;;0.70;0.70;;;18.50;99.90;;;;;;5005323;28;20188;-82
2022/05/01 10:20:52;;;;;;;1.43;0.93;;;17.60;99.90;;;;;;5018413;28;20219;-82
2022/05/01 10:23:18;;;;;;;1.33;0.97;;;17.40;99.90;;;;;;5005066;28;20809;-82
2022/05/01 10:25:58;;;;;;;0.43;0.43;;;17.10;99.90;;;;;;5006432;28;20198;-81
2022/05/01 10:28:39;;;;;;;0.50;0.50;;;17.70;99.90;;;;;;5011683;28;20183;-82
2022/05/01 10:35:07;;;;;;;1.03;0.57;;;18.50;99.90;;;;;;4981174;28;20191;-82
2022/05/01 10:37:41;;;;;;;0.43;0.43;;;18.20;99.90;;;;;;4982010;28;20199;-81
2022/05/01 10:40:07;;;;;;;0.73;0.73;;;18.60;99.90;;;;;;4991782;28;20198;-82
2022/05/01 10:42:43;;;;;;;0.30;0.30;;;18.90;99.90;;;;;;5005532;28;20774;-82
2022/05/01 10:45:21;;;;;;;0.97;0.50;;;19.30;99.90;;;;;;5021607;28;20277;-82
2022/05/01 10:47:48;;;;;;;0.33;0.33;;;19.00;99.90;;;;;;5005860;28;20197;-82
2022/05/01 10:50:23;;;;;;;0.90;0.90;;;19.50;99.90;;;;;;5009999;28;20179;-82
2022/05/01 10:53:08;;;;;;;1.00;1.00;;;19.00;99.90;;;;;;5003129;28;20725;-82
2022/05/01 10:55:52;;;;;;;0.80;0.80;;;18.90;99.90;;;;;;5010783;28;20242;-82
2022/05/01 10:58:26;;;;;;;0.87;0.80;;;18.60;99.90;;;;;;5022098;28;20195;-82
2022/05/01 11:00:56;;;;;;;2.00;0.80;;;18.40;99.90;;;;;;5005411;28;20239;-82
2022/05/01 11:03:35;;;;;;;0.67;0.67;;;18.60;99.90;;;;;;5004330;28;20187;-83
2022/05/01 11:06:03;;;;;;;0.80;0.80;;;17.80;99.90;;;;;;5003001;28;20898;-82
2022/05/01 11:08:36;;;;;;;0.50;0.50;;;17.10;99.90;;;;;;5018898;28;20207;-82
2022/05/01 11:11:05;;;;;;;0.57;0.57;;;17.70;99.90;;;;;;5020707;28;20677;-82
2022/05/01 11:13:38;;;;;;;0.43;0.40;;;17.70;99.90;;;;;;5005086;28;20190;-81
2022/05/01 11:16:05;;;;;;;0.30;0.30;;;18.40;99.90;;;;;;5005018;28;20195;-81
2022/05/01 11:18:52;;;;;;;0.77;0.63;;;18.90;99.90;;;;;;5013955;28;20191;-82
2022/05/01 11:21:20;;;;;;;1.17;0.73;;;19.20;99.90;;;;;;5003162;28;20621;-81
2022/05/01 11:24:07;;;;;;;0.50;0.50;;;19.60;99.90;;;;;;5017559;28;20631;-82
2022/05/01 11:26:33;;;;;;;0.50;0.50;;;18.70;99.90;;;;;;5019431;28;20195;-81
2022/05/01 11:29:17;;;;;;;0.80;0.80;;;17.90;99.90;;;;;;5009014;28;21038;-82
2022/05/01 11:31:45;;;;;;;0.47;0.47;;;17.10;99.90;;;;;;5003908;28;20214;-81
2022/05/01 11:34:16;;;;;;;0.63;0.63;;;17.10;99.90;;;;;;5008909;28;20720;-82
2022/05/01 11:37:06;;;;;;;0.80;0.80;;;16.80;99.90;;;;;;5001140;28;20195;-82
2022/05/01 11:39:49;;;;;;;0.70;0.43;;;17.50;99.90;;;;;;5009892;28;20190;-81
2022/05/01 11:42:25;;;;;;;0.47;0.47;;;17.70;99.90;;;;;;5018160;28;20214;-81
2022/05/01 11:44:54;;;;;;;0.50;0.50;;;17.50;99.90;;;;;;5003860;28;20373;-81
2022/05/01 11:47:31;;;;;;;0.57;0.57;;;17.40;99.90;;;;;;5005069;28;20178;-81
2022/05/01 11:49:56;;;;;;;0.57;0.57;;;18.00;99.90;;;;;;5001612;28;20183;-82
2022/05/01 11:52:24;;;;;;;0.57;0.57;;;17.80;99.90;;;;;;5006781;28;21063;-81
2022/05/01 11:54:57;;;;;;;0.63;0.57;;;18.50;99.90;;;;;;5017937;28;20188;-82
2022/05/01 12:03:05;;;;;;;1.43;0.37;;;18.70;99.90;;;;;;5002517;28;20206;-82
2022/05/01 12:05:32;;;;;;;1.07;0.70;;;19.40;99.90;;;;;;5002295;28;20197;-81
2022/05/01 12:07:59;;;;;;;0.57;0.57;;;19.40;99.90;;;;;;5009476;28;20225;-82
2022/05/01 12:10:26;;;;;;;1.03;0.47;;;19.20;99.90;;;;;;5005937;28;20202;-83
2022/05/01 12:12:52;;;;;;;0.43;0.43;;;19.00;99.90;;;;;;4999576;28;20194;-82
2022/05/01 12:15:17;;;;;;;0.63;0.63;;;18.90;99.90;;;;;;4999356;28;20184;-82
2022/05/01 12:17:43;;;;;;;0.80;0.80;;;19.10;99.90;;;;;;4999237;28;20187;-83
2022/05/01 12:20:10;;;;;;;1.40;1.10;;;18.30;99.90;;;;;;5005680;28;20244;-82
2022/05/01 12:22:38;;;;;;;3.70;1.27;;;18.20;99.90;;;;;;4998985;28;20286;-83
2022/05/01 12:25:07;;;;;;;1.93;0.70;;;17.70;99.90;;;;;;5000538;28;20220;-83
2022/05/01 12:27:34;;;;;;;1.00;1.00;;;17.70;99.90;;;;;;5000493;28;20188;-83
2022/05/01 12:30:02;;;;;;;0.43;0.43;;;17.90;99.90;;;;;;5005292;28;20187;-82
2022/05/01 12:32:28;;;;;;;0.50;0.50;;;18.70;99.90;;;;;;5001723;28;20198;-82
2022/05/01 12:34:58;;;;;;;0.27;0.27;;;19.30;99.90;;;;;;5002260;28;21357;-80
2022/05/01 12:37:31;;;;;;;0.87;0.57;;;19.90;99.90;;;;;;5001377;28;20210;-81
2022/05/01 12:39:57;;;;;;;0.93;0.70;;;20.00;99.90;;;;;;5009364;28;20192;-82
2022/05/01 12:45:20;;;;;;;0.73;0.53;;;20.50;99.90;;;;;;5003573;28;20247;-82
2022/05/01 12:47:53;;;;;;;0.50;0.50;;;21.00;99.90;;;;;;5002141;28;20258;-82
2022/05/01 12:50:18;;;;;;;2.33;0.47;;;20.90;99.90;;;;;;5010604;28;20189;-82
2022/05/01 12:52:46;;;;;;;0.70;0.70;;;20.50;99.90;;;;;;5003867;28;20196;-81
2022/05/01 12:55:17;;;;;;;0.80;0.53;;;19.80;99.90;;;;;;5004649;28;20289;-81
2022/05/01 12:57:57;;;;;;;1.80;1.17;;;19.40;99.90;;;;;;5005366;28;20270;-82
2022/05/01 13:00:37;;;;;;;0.60;0.60;;;19.70;99.90;;;;;;5004716;28;20206;-81
2022/05/01 13:03:43;;;;;;;0.77;0.77;;;19.80;99.90;;;;;;5001814;28;20208;-82
2022/05/01 13:06:13;;;;;;;0.50;0.50;;;19.10;99.90;;;;;;5006135;28;20207;-81
2022/05/01 13:08:44;;;;;;;0.50;0.50;;;19.40;99.90;;;;;;5005481;28;20210;-82
2022/05/01 13:11:13;;;;;;;0.70;0.70;;;19.30;99.90;;;;;;5006052;28;20230;-82
2022/05/01 13:13:50;;;;;;;2.07;1.10;;;18.90;99.90;;;;;;5006362;28;20186;-82
2022/05/01 13:16:32;;;;;;;0.50;0.50;;;19.50;99.90;;;;;;5007855;28;20572;-81
2022/05/01 13:19:06;;;;;;;0.70;0.70;;;19.80;99.90;;;;;;5019133;28;20214;-82
2022/05/01 13:21:33;;;;;;;4.73;0.57;;;19.00;99.90;;;;;;5017418;28;20226;-82
2022/05/01 13:24:03;;;;;;;1.10;1.00;;;19.60;99.90;;;;;;5007869;28;20202;-83
2022/05/01 13:26:29;;;;;;;0.87;0.87;;;19.70;99.90;;;;;;5002958;28;20179;-82